Time;durP1;ratioP1;P1;durP2;ratioP2;P2;SDS_P1;SDS_P2;PMS_P1;PMS_P2;Temp;Humidity;BMP_temperature;BMP_pressure;BME280_temperature;BME280_humidity;BME280_pressure;Samples;Min_cycle;Max_cycle;Signal;HPM_P1;HPM_P2
2022/07/24 00:02:00;;;;;;;7.18;6.53;;;24.10;55.30;;;;;;5044261;28;20025;-51
2022/07/24 00:04:25;;;;;;;7.65;6.75;;;24.10;55.30;;;;;;5042422;28;20028;-49
2022/07/24 00:06:51;;;;;;;6.85;6.25;;;24.10;55.20;;;;;;5043794;28;20049;-55
2022/07/24 00:09:16;;;;;;;6.93;6.28;;;24.10;55.20;;;;;;5043375;28;20436;-50
2022/07/24 00:11:42;;;;;;;7.25;6.65;;;24.00;55.10;;;;;;5023294;28;20021;-48
2022/07/24 00:14:07;;;;;;;7.07;6.15;;;24.00;55.00;;;;;;5022813;28;20037;-50
2022/07/24 00:16:33;;;;;;;7.50;6.80;;;24.00;55.00;;;;;;5041519;28;20040;-53
2022/07/24 00:18:58;;;;;;;7.88;7.07;;;24.00;55.00;;;;;;5042507;28;20025;-49
2022/07/24 00:21:24;;;;;;;7.47;6.78;;;24.00;55.00;;;;;;5043123;28;20457;-49
2022/07/24 00:23:49;;;;;;;6.85;6.25;;;24.00;54.90;;;;;;5043121;28;20037;-55
2022/07/24 00:26:15;;;;;;;6.60;5.93;;;24.00;54.90;;;;;;5043900;28;20025;-53
2022/07/24 00:28:40;;;;;;;6.82;6.22;;;24.00;54.90;;;;;;5043094;28;20029;-51
2022/07/24 00:31:06;;;;;;;6.90;6.30;;;24.00;54.80;;;;;;5043295;28;20059;-54
2022/07/24 00:33:31;;;;;;;6.57;5.88;;;24.00;54.80;;;;;;5042055;28;20507;-54
2022/07/24 00:35:57;;;;;;;6.93;6.22;;;24.00;54.80;;;;;;5025474;28;20059;-49
2022/07/24 00:38:22;;;;;;;8.02;6.15;;;24.00;54.70;;;;;;5033165;28;20056;-56
2022/07/24 00:40:48;;;;;;;6.78;6.03;;;24.00;54.80;;;;;;5042691;28;20033;-51
2022/07/24 00:43:16;;;;;;;6.20;5.50;;;24.00;54.80;;;;;;5043216;28;20033;-50
2022/07/24 00:45:41;;;;;;;6.60;5.60;;;23.90;54.70;;;;;;5043202;28;20128;-49
2022/07/24 00:48:07;;;;;;;5.57;5.07;;;23.90;54.60;;;;;;5042778;28;20115;-52
2022/07/24 00:50:32;;;;;;;5.63;5.13;;;23.90;54.60;;;;;;5042454;28;20127;-52
2022/07/24 00:52:58;;;;;;;5.35;4.90;;;23.90;54.60;;;;;;5042771;28;20033;-51
2022/07/24 00:55:23;;;;;;;5.50;4.90;;;23.90;54.60;;;;;;5024117;28;20067;-51
2022/07/24 00:57:49;;;;;;;5.00;4.07;;;23.90;54.50;;;;;;5012805;28;20029;-51
2022/07/24 01:00:15;;;;;;;4.88;4.22;;;23.90;54.50;;;;;;4995295;28;20057;-53
2022/07/24 01:02:41;;;;;;;4.53;4.15;;;23.90;54.40;;;;;;5040673;28;20037;-55
2022/07/24 01:05:10;;;;;;;5.25;4.45;;;23.90;54.40;;;;;;5041607;28;20026;-54
2022/07/24 01:07:36;;;;;;;4.40;4.00;;;23.90;54.50;;;;;;5023639;28;20221;-52
2022/07/24 01:10:03;;;;;;;4.30;4.00;;;23.90;54.40;;;;;;5023238;28;20108;-54
2022/07/24 01:12:29;;;;;;;5.57;3.85;;;23.90;54.30;;;;;;5041819;28;20041;-50
2022/07/24 01:14:55;;;;;;;4.30;3.55;;;23.90;54.30;;;;;;5010130;28;20033;-54
2022/07/24 01:17:20;;;;;;;4.93;3.47;;;23.80;54.20;;;;;;5036822;28;20391;-52
2022/07/24 01:19:46;;;;;;;3.95;3.40;;;23.80;54.20;;;;;;5043137;28;20052;-49
2022/07/24 01:22:11;;;;;;;4.05;3.65;;;23.80;54.20;;;;;;5045048;28;20067;-51
2022/07/24 01:24:37;;;;;;;4.13;3.67;;;23.80;54.20;;;;;;5046370;28;20029;-50
2022/07/24 01:27:02;;;;;;;3.47;3.17;;;23.80;54.10;;;;;;5045927;28;20051;-51
2022/07/24 01:29:28;;;;;;;5.10;3.78;;;23.80;54.10;;;;;;5046739;28;20029;-49
2022/07/24 01:31:53;;;;;;;3.38;3.08;;;23.80;54.10;;;;;;5045611;28;20029;-52
2022/07/24 01:34:19;;;;;;;3.65;3.30;;;23.80;54.10;;;;;;5046167;28;20454;-52
2022/07/24 01:36:45;;;;;;;3.63;3.33;;;23.70;54.10;;;;;;5043762;28;20033;-53
2022/07/24 01:39:10;;;;;;;3.47;3.15;;;23.80;54.10;;;;;;5046156;28;20314;-53
2022/07/24 01:41:36;;;;;;;3.47;3.17;;;23.70;54.00;;;;;;5028286;28;20116;-51
2022/07/24 01:44:01;;;;;;;3.67;3.20;;;23.70;54.00;;;;;;5046330;28;20053;-52
2022/07/24 01:46:27;;;;;;;3.78;3.05;;;23.70;54.00;;;;;;5045905;28;20049;-51
2022/07/24 01:48:52;;;;;;;3.35;3.05;;;23.70;54.00;;;;;;5046059;28;20095;-50
2022/07/24 01:51:18;;;;;;;3.72;2.95;;;23.80;54.70;;;;;;5046103;28;20037;-55
2022/07/24 01:53:43;;;;;;;4.03;3.50;;;23.70;54.00;;;;;;5046754;28;20519;-51
2022/07/24 01:56:09;;;;;;;3.38;3.08;;;23.70;54.00;;;;;;5046108;28;20025;-57
2022/07/24 01:58:34;;;;;;;3.60;3.30;;;23.70;54.00;;;;;;5046165;28;20028;-56
2022/07/24 02:01:00;;;;;;;3.17;2.78;;;23.70;54.00;;;;;;5045867;28;20099;-53
2022/07/24 02:03:25;;;;;;;3.33;3.03;;;23.70;54.00;;;;;;5046134;28;20110;-50
2022/07/24 02:05:51;;;;;;;3.00;2.70;;;23.70;54.00;;;;;;5045248;28;20565;-50
2022/07/24 02:08:16;;;;;;;2.83;2.45;;;23.70;54.00;;;;;;5045513;28;20045;-53
2022/07/24 02:10:42;;;;;;;3.78;2.80;;;23.70;54.00;;;;;;5045599;28;20318;-52
2022/07/24 02:13:07;;;;;;;4.95;3.08;;;23.60;53.90;;;;;;5045190;28;20389;-49
2022/07/24 02:15:33;;;;;;;3.15;2.85;;;23.60;53.90;;;;;;5045025;28;20029;-54
2022/07/24 02:17:59;;;;;;;3.83;3.05;;;23.60;53.80;;;;;;5045070;28;20110;-55
2022/07/24 02:20:25;;;;;;;3.55;3.15;;;23.60;53.90;;;;;;5010191;28;20032;-51
2022/07/24 02:22:51;;;;;;;3.60;2.70;;;23.60;53.80;;;;;;5044644;28;20044;-55
2022/07/24 02:25:16;;;;;;;3.22;2.92;;;23.60;53.90;;;;;;5044589;28;20021;-49
2022/07/24 02:27:42;;;;;;;3.35;2.92;;;23.60;53.80;;;;;;5043593;28;20025;-51
2022/07/24 02:30:12;;;;;;;4.30;2.72;;;23.60;53.80;;;;;;5026408;28;20037;-52
2022/07/24 02:32:38;;;;;;;4.22;3.38;;;23.60;53.80;;;;;;5027220;28;20085;-53
2022/07/24 02:35:04;;;;;;;2.90;2.63;;;23.60;53.80;;;;;;5044682;28;20447;-52
2022/07/24 02:37:29;;;;;;;3.00;2.72;;;23.60;53.70;;;;;;5027402;28;20341;-53
2022/07/24 02:39:55;;;;;;;5.22;3.15;;;23.60;53.70;;;;;;5044879;28;20564;-51
2022/07/24 02:42:20;;;;;;;4.55;2.67;;;23.60;53.70;;;;;;5045047;28;20078;-51
2022/07/24 02:44:46;;;;;;;3.05;2.75;;;23.60;53.70;;;;;;5043706;28;20108;-51
2022/07/24 02:47:11;;;;;;;3.72;2.88;;;23.60;53.60;;;;;;5044791;28;20021;-52
2022/07/24 02:49:37;;;;;;;2.47;2.28;;;23.50;53.60;;;;;;5044056;28;20033;-51
2022/07/24 02:52:03;;;;;;;4.70;2.88;;;23.50;53.60;;;;;;5045040;28;20047;-52
2022/07/24 02:54:28;;;;;;;3.50;2.50;;;23.50;53.60;;;;;;5045316;28;20381;-50
2022/07/24 02:56:54;;;;;;;2.70;2.50;;;23.50;53.60;;;;;;5044722;28;20029;-54
2022/07/24 02:59:19;;;;;;;2.70;2.50;;;23.50;53.60;;;;;;5043821;28;20033;-50
2022/07/24 03:01:45;;;;;;;2.40;2.20;;;23.50;53.60;;;;;;5044700;28;20114;-52
2022/07/24 03:04:11;;;;;;;2.55;2.33;;;23.50;53.60;;;;;;5044492;28;20029;-51
2022/07/24 03:06:36;;;;;;;2.70;2.50;;;23.50;53.50;;;;;;5026516;28;20067;-55
2022/07/24 03:09:02;;;;;;;2.55;2.35;;;23.50;53.50;;;;;;5043870;28;20097;-53
2022/07/24 03:11:28;;;;;;;2.78;2.50;;;23.50;53.50;;;;;;5044483;28;20025;-51
2022/07/24 03:13:53;;;;;;;2.40;2.30;;;23.50;53.50;;;;;;5044074;28;20040;-51
2022/07/24 03:16:19;;;;;;;3.70;2.38;;;23.40;53.40;;;;;;5043924;28;20048;-49
2022/07/24 03:18:51;;;;;;;2.67;2.33;;;23.40;53.40;;;;;;5026044;28;20035;-53
2022/07/24 03:21:16;;;;;;;2.70;2.28;;;23.40;53.40;;;;;;5026983;28;20029;-53
2022/07/24 03:23:42;;;;;;;2.20;1.92;;;23.40;53.50;;;;;;5026905;28;20044;-49
2022/07/24 03:26:07;;;;;;;2.35;2.17;;;23.40;53.40;;;;;;5044456;28;20029;-53
2022/07/24 03:28:33;;;;;;;2.28;1.98;;;23.40;53.50;;;;;;5026351;28;20421;-54
2022/07/24 03:31:00;;;;;;;3.72;2.38;;;23.40;53.50;;;;;;5044603;28;20380;-52
2022/07/24 03:33:25;;;;;;;2.40;2.17;;;23.40;53.40;;;;;;5045464;28;20147;-54
2022/07/24 03:35:51;;;;;;;3.10;2.30;;;23.40;53.40;;;;;;5043999;28;20100;-53
2022/07/24 03:38:16;;;;;;;2.53;2.33;;;23.40;53.40;;;;;;5044073;28;20028;-50
2022/07/24 03:40:42;;;;;;;2.65;2.25;;;23.40;53.50;;;;;;5026545;28;20029;-54
2022/07/24 03:43:07;;;;;;;2.30;2.13;;;23.40;53.50;;;;;;5045230;28;20396;-52
2022/07/24 03:45:33;;;;;;;2.40;1.77;;;23.30;53.40;;;;;;5045635;28;20516;-51
2022/07/24 03:47:59;;;;;;;2.60;2.10;;;23.30;53.50;;;;;;5028909;28;20033;-52
2022/07/24 03:50:24;;;;;;;1.80;1.70;;;23.30;53.50;;;;;;5045043;28;20045;-53
2022/07/24 03:52:50;;;;;;;3.38;2.05;;;23.30;53.50;;;;;;5044634;28;20605;-55
2022/07/24 03:55:15;;;;;;;3.05;2.35;;;23.30;53.50;;;;;;5044819;28;20032;-49
2022/07/24 03:57:41;;;;;;;3.00;1.88;;;23.30;53.50;;;;;;5043961;28;20083;-50
2022/07/24 04:00:08;;;;;;;2.22;2.03;;;23.30;53.50;;;;;;5043162;28;20039;-52
2022/07/24 04:02:34;;;;;;;2.15;2.00;;;23.30;53.50;;;;;;5043163;28;20029;-50
2022/07/24 04:04:59;;;;;;;2.80;2.30;;;23.30;53.50;;;;;;5040145;28;20726;-49
2022/07/24 04:07:25;;;;;;;2.38;2.03;;;23.30;53.50;;;;;;5042455;28;20359;-51
2022/07/24 04:09:50;;;;;;;3.13;1.77;;;23.30;54.20;;;;;;5042892;28;20024;-53
2022/07/24 04:12:16;;;;;;;3.03;1.55;;;23.30;53.60;;;;;;5043072;28;20075;-50
2022/07/24 04:14:41;;;;;;;2.22;2.03;;;23.30;54.20;;;;;;5043339;28;20033;-50
2022/07/24 04:17:07;;;;;;;2.58;1.80;;;23.30;53.50;;;;;;5025088;28;20522;-52
2022/07/24 04:19:33;;;;;;;2.75;2.05;;;23.30;53.60;;;;;;5042866;28;20033;-50
2022/07/24 04:21:58;;;;;;;5.07;2.03;;;23.30;53.60;;;;;;5043466;28;20040;-49
2022/07/24 04:24:24;;;;;;;3.13;1.80;;;23.30;53.70;;;;;;5043186;28;20052;-49
2022/07/24 04:26:49;;;;;;;1.73;1.63;;;23.30;53.70;;;;;;5042659;28;20038;-52
2022/07/24 04:29:15;;;;;;;1.90;1.73;;;23.30;53.70;;;;;;5042177;28;20021;-51
2022/07/24 04:31:40;;;;;;;2.10;1.90;;;23.30;53.70;;;;;;5042292;28;20029;-49
2022/07/24 04:34:06;;;;;;;2.17;2.00;;;23.20;53.70;;;;;;5042729;28;20120;-51
2022/07/24 04:36:31;;;;;;;2.25;1.65;;;23.20;53.70;;;;;;5042533;28;20136;-49
2022/07/24 04:38:57;;;;;;;1.90;1.80;;;23.30;53.90;;;;;;5025021;28;20508;-54
2022/07/24 04:41:23;;;;;;;2.35;2.15;;;23.30;53.90;;;;;;5042625;28;20459;-49
2022/07/24 04:43:49;;;;;;;1.70;1.60;;;23.30;53.90;;;;;;5042620;28;20072;-51
2022/07/24 04:46:15;;;;;;;1.70;1.60;;;23.20;53.90;;;;;;5024963;28;20021;-50
2022/07/24 04:48:40;;;;;;;5.10;1.85;;;23.20;54.00;;;;;;5043185;28;20025;-52
2022/07/24 04:51:06;;;;;;;2.17;1.85;;;23.30;54.10;;;;;;5048389;28;20025;-50
2022/07/24 04:53:31;;;;;;;2.20;1.70;;;23.20;54.10;;;;;;5031325;28;20044;-54
2022/07/24 04:55:57;;;;;;;2.80;2.20;;;23.20;54.20;;;;;;5049988;28;20029;-51
2022/07/24 04:58:23;;;;;;;4.60;2.15;;;23.30;54.30;;;;;;5048563;28;20091;-54
2022/07/24 05:00:48;;;;;;;2.47;1.98;;;23.30;54.40;;;;;;5048620;28;20120;-51
2022/07/24 05:03:14;;;;;;;2.38;1.70;;;23.20;54.40;;;;;;5049195;28;20048;-53
2022/07/24 05:05:39;;;;;;;2.00;1.90;;;23.20;54.50;;;;;;5049309;28;20033;-52
2022/07/24 05:08:05;;;;;;;2.17;1.90;;;23.30;54.70;;;;;;5031101;28;20114;-53
2022/07/24 05:10:30;;;;;;;2.08;1.95;;;23.30;54.70;;;;;;5048435;28;20076;-56
2022/07/24 05:12:56;;;;;;;2.20;2.00;;;23.20;54.80;;;;;;5049360;28;20441;-52
2022/07/24 05:15:21;;;;;;;2.25;2.05;;;23.20;54.80;;;;;;5049349;28;20342;-49
2022/07/24 05:17:47;;;;;;;1.95;1.70;;;23.30;54.90;;;;;;5049283;28;20029;-51
2022/07/24 05:20:13;;;;;;;1.65;1.55;;;23.30;55.00;;;;;;5048488;28;20040;-51
2022/07/24 05:22:38;;;;;;;2.92;2.03;;;23.30;55.00;;;;;;5042712;22;20553;-51
2022/07/24 05:25:04;;;;;;;2.05;1.83;;;23.30;55.10;;;;;;5034506;28;20033;-53
2022/07/24 05:27:30;;;;;;;2.35;2.15;;;23.30;55.10;;;;;;5050860;28;20582;-55
2022/07/24 05:29:55;;;;;;;2.75;2.38;;;23.30;55.20;;;;;;5049160;28;20652;-50
2022/07/24 05:32:21;;;;;;;2.28;2.08;;;23.30;55.30;;;;;;5050306;28;20518;-49
2022/07/24 05:34:46;;;;;;;2.65;2.20;;;23.30;55.40;;;;;;5050525;28;20519;-53
2022/07/24 05:37:12;;;;;;;1.80;1.70;;;23.30;55.50;;;;;;5050537;28;20053;-55
2022/07/24 05:39:37;;;;;;;2.20;2.00;;;23.30;55.60;;;;;;5049609;28;20037;-54
2022/07/24 05:42:03;;;;;;;3.17;1.98;;;23.30;55.70;;;;;;5050162;28;20017;-53
2022/07/24 05:44:29;;;;;;;2.08;1.90;;;23.30;55.80;;;;;;5050986;28;20021;-50
2022/07/24 05:46:54;;;;;;;2.72;1.90;;;23.20;55.80;;;;;;5050226;28;20021;-54
2022/07/24 05:49:19;;;;;;;2.17;2.03;;;23.30;55.90;;;;;;5049239;28;20029;-52
2022/07/24 05:51:45;;;;;;;2.22;1.70;;;23.30;56.00;;;;;;5050431;28;20082;-52
2022/07/24 05:54:10;;;;;;;2.30;1.95;;;23.30;56.10;;;;;;5050453;28;20400;-49
2022/07/24 05:56:36;;;;;;;2.47;2.20;;;23.30;56.20;;;;;;5050117;28;20052;-51
2022/07/24 05:59:01;;;;;;;2.38;2.17;;;23.40;56.30;;;;;;5049792;28;20028;-52
2022/07/24 06:01:27;;;;;;;1.90;1.80;;;23.30;56.40;;;;;;5047098;28;20190;-55
2022/07/24 06:03:52;;;;;;;2.33;2.13;;;23.30;56.40;;;;;;5047222;28;20021;-49
2022/07/24 06:06:18;;;;;;;3.38;2.40;;;23.30;56.40;;;;;;5046787;28;20432;-53
2022/07/24 06:08:45;;;;;;;2.83;2.08;;;23.30;56.40;;;;;;5046333;28;20029;-54
2022/07/24 06:11:10;;;;;;;2.58;1.98;;;23.30;56.40;;;;;;5029066;28;20032;-51
2022/07/24 06:13:36;;;;;;;3.10;2.03;;;23.30;56.40;;;;;;5046785;28;20045;-53
2022/07/24 06:16:01;;;;;;;2.22;1.80;;;23.30;56.40;;;;;;5046783;28;20025;-50
2022/07/24 06:18:27;;;;;;;3.13;2.08;;;23.30;56.30;;;;;;5046837;28;20036;-52
2022/07/24 06:20:52;;;;;;;1.55;1.45;;;23.30;56.20;;;;;;5046424;28;20036;-52
2022/07/24 06:23:18;;;;;;;2.03;1.92;;;23.30;56.10;;;;;;5046575;28;20377;-51
2022/07/24 06:25:43;;;;;;;3.38;1.60;;;23.30;55.80;;;;;;5046398;28;20064;-53
2022/07/24 06:28:09;;;;;;;2.00;1.40;;;23.30;55.60;;;;;;5046518;28;20078;-53
2022/07/24 06:30:34;;;;;;;1.83;1.67;;;23.30;55.50;;;;;;5045796;28;20033;-54
2022/07/24 06:33:00;;;;;;;2.50;1.63;;;23.30;55.40;;;;;;5045019;28;20392;-49
2022/07/24 06:35:26;;;;;;;2.17;1.70;;;23.30;55.20;;;;;;5046279;28;20114;-49
2022/07/24 06:37:52;;;;;;;2.50;1.50;;;23.30;55.20;;;;;;5045170;28;20068;-54
2022/07/24 06:40:18;;;;;;;2.42;1.63;;;23.30;55.00;;;;;;5044733;28;20524;-54
2022/07/24 06:42:44;;;;;;;1.60;1.50;;;23.30;54.90;;;;;;5044676;28;20036;-50
2022/07/24 06:45:10;;;;;;;2.15;1.40;;;23.30;54.90;;;;;;5046401;28;20025;-49
2022/07/24 06:47:35;;;;;;;3.28;1.70;;;23.30;54.90;;;;;;5046133;28;20182;-51
2022/07/24 06:50:01;;;;;;;3.67;1.75;;;23.30;54.70;;;;;;5046253;28;20110;-51
2022/07/24 06:52:26;;;;;;;3.42;1.50;;;23.30;54.60;;;;;;5046025;28;20060;-50
2022/07/24 06:54:52;;;;;;;3.78;1.58;;;23.30;54.40;;;;;;5046401;28;20033;-54
2022/07/24 06:57:18;;;;;;;3.55;1.58;;;23.30;54.20;;;;;;5045929;28;20025;-52
2022/07/24 06:59:43;;;;;;;1.70;1.30;;;23.30;54.10;;;;;;5044467;28;20718;-53
2022/07/24 07:02:09;;;;;;;3.53;1.50;;;23.30;54.10;;;;;;5044863;28;20021;-53
2022/07/24 07:04:34;;;;;;;2.53;1.58;;;23.30;54.10;;;;;;5046368;28;20037;-53
2022/07/24 07:07:00;;;;;;;2.17;1.38;;;23.30;54.20;;;;;;5028089;28;20400;-52
2022/07/24 07:09:25;;;;;;;1.70;1.33;;;23.30;54.10;;;;;;5045652;28;20031;-51
2022/07/24 07:11:51;;;;;;;3.20;1.73;;;23.30;53.90;;;;;;5045643;28;20025;-55
2022/07/24 07:14:16;;;;;;;2.38;1.35;;;23.30;53.90;;;;;;5045625;28;20395;-51
2022/07/24 07:16:42;;;;;;;1.98;1.67;;;23.30;53.90;;;;;;5045667;28;20025;-53
2022/07/24 07:19:07;;;;;;;2.55;1.60;;;23.30;53.90;;;;;;5043994;28;20163;-54
2022/07/24 07:21:33;;;;;;;1.40;1.30;;;23.30;53.90;;;;;;5045150;28;20082;-47
2022/07/24 07:23:58;;;;;;;2.22;1.33;;;23.30;54.00;;;;;;5046038;28;20108;-50
2022/07/24 07:26:24;;;;;;;1.58;1.23;;;23.30;54.00;;;;;;5045987;28;20411;-49
2022/07/24 07:28:49;;;;;;;1.60;1.40;;;23.30;54.00;;;;;;5045280;28;20045;-48
2022/07/24 07:31:15;;;;;;;1.55;1.30;;;23.30;54.00;;;;;;5045517;28;20029;-50
2022/07/24 07:33:40;;;;;;;1.60;1.35;;;23.30;54.00;;;;;;5045292;28;20033;-50
2022/07/24 07:36:08;;;;;;;2.33;1.33;;;23.30;53.90;;;;;;5045712;28;20108;-49
2022/07/24 07:38:35;;;;;;;2.28;1.33;;;23.30;53.80;;;;;;5044979;28;20047;-49
2022/07/24 07:41:00;;;;;;;2.78;1.70;;;23.30;53.80;;;;;;5045959;28;20058;-49
2022/07/24 07:43:26;;;;;;;2.55;1.40;;;23.20;53.70;;;;;;5044868;28;20037;-49
2022/07/24 07:45:52;;;;;;;1.52;1.42;;;23.30;53.70;;;;;;5045530;28;20041;-50
2022/07/24 07:48:17;;;;;;;2.55;1.50;;;23.30;53.70;;;;;;5045303;28;20029;-49
2022/07/24 07:50:43;;;;;;;2.75;1.70;;;23.30;53.60;;;;;;5044788;28;20466;-48
2022/07/24 07:53:08;;;;;;;2.25;1.77;;;23.30;53.70;;;;;;5044801;28;20243;-52
2022/07/24 07:55:34;;;;;;;1.52;1.35;;;23.30;53.60;;;;;;5045028;28;20029;-49
2022/07/24 07:58:00;;;;;;;1.58;1.40;;;23.30;53.70;;;;;;5044970;28;20021;-49
2022/07/24 08:00:25;;;;;;;1.80;1.50;;;23.30;53.70;;;;;;5044257;28;20036;-48
2022/07/24 08:02:51;;;;;;;2.22;1.70;;;23.30;53.60;;;;;;5044670;28;20025;-49
2022/07/24 08:05:16;;;;;;;2.50;1.95;;;23.30;53.60;;;;;;5026801;28;20021;-49
2022/07/24 08:07:42;;;;;;;2.30;1.60;;;23.30;53.60;;;;;;5044438;28;20036;-50
2022/07/24 08:10:07;;;;;;;2.42;1.50;;;23.30;53.60;;;;;;5044235;28;20025;-49
2022/07/24 08:12:33;;;;;;;3.03;1.73;;;23.30;53.70;;;;;;5044535;28;20107;-49
2022/07/24 08:14:58;;;;;;;2.40;1.65;;;23.30;53.70;;;;;;5045134;28;20032;-52
2022/07/24 08:17:24;;;;;;;1.45;1.33;;;23.30;54.40;;;;;;5044829;28;20025;-49
2022/07/24 08:19:49;;;;;;;1.88;1.50;;;23.30;53.90;;;;;;5044275;28;20032;-52
2022/07/24 08:22:15;;;;;;;1.70;1.50;;;23.30;53.90;;;;;;5042080;28;20468;-48
2022/07/24 08:24:40;;;;;;;2.33;1.77;;;23.30;53.90;;;;;;5044086;28;20041;-54
2022/07/24 08:27:06;;;;;;;3.00;1.52;;;23.30;53.80;;;;;;5045128;28;20025;-50
2022/07/24 08:29:31;;;;;;;2.10;1.85;;;23.30;53.70;;;;;;5044324;28;20029;-53
2022/07/24 08:31:57;;;;;;;2.35;1.48;;;23.40;53.70;;;;;;5044569;28;20056;-52
2022/07/24 08:34:23;;;;;;;2.33;1.50;;;23.40;53.60;;;;;;5044243;28;20037;-51
2022/07/24 08:36:48;;;;;;;2.75;1.92;;;23.30;53.60;;;;;;5044491;28;20715;-54
2022/07/24 08:39:15;;;;;;;3.45;1.83;;;23.40;53.60;;;;;;5043735;28;20038;-54
2022/07/24 08:41:41;;;;;;;2.05;1.85;;;23.30;53.50;;;;;;5044196;28;20044;-50
2022/07/24 08:44:06;;;;;;;2.40;2.20;;;23.30;53.50;;;;;;5043884;28;20403;-54
2022/07/24 08:46:32;;;;;;;1.80;1.70;;;23.40;53.60;;;;;;5045099;28;20120;-55
2022/07/24 08:48:57;;;;;;;3.25;1.85;;;23.40;53.60;;;;;;5043709;28;20029;-53
2022/07/24 08:51:23;;;;;;;3.33;1.80;;;23.40;53.60;;;;;;5043158;28;20033;-56
2022/07/24 08:53:49;;;;;;;1.70;1.60;;;23.40;53.60;;;;;;5026490;28;20037;-55
2022/07/24 08:56:15;;;;;;;2.55;2.13;;;23.40;53.60;;;;;;5044281;28;20607;-50
2022/07/24 08:58:41;;;;;;;2.58;2.00;;;23.40;53.50;;;;;;5042093;28;20062;-54
2022/07/24 09:01:07;;;;;;;3.03;2.00;;;23.40;53.60;;;;;;5044151;28;20403;-49
2022/07/24 09:03:43;;;;;;;2.00;1.80;;;23.40;53.60;;;;;;5043932;28;20033;-49
2022/07/24 09:06:10;;;;;;;2.42;2.22;;;23.40;53.60;;;;;;5044326;28;20271;-49
2022/07/24 09:08:36;;;;;;;2.28;2.05;;;23.40;53.60;;;;;;5032464;28;20124;-49
2022/07/24 09:11:03;;;;;;;3.13;2.05;;;23.40;53.50;;;;;;5044691;28;20033;-52
2022/07/24 09:14:29;;;;;;;2.40;2.13;;;23.40;53.40;;;;;;5044266;28;20037;-54
2022/07/24 09:16:24;;;;;;;4.10;2.97;;;23.40;53.40;;;;;;5043998;28;20088;-51
2022/07/24 09:19:07;;;;;;;2.60;2.40;;;23.40;53.30;;;;;;5044079;28;20032;-56
2022/07/24 09:21:37;;;;;;;2.50;2.30;;;23.40;52.70;;;;;;5038104;28;20548;-49
2022/07/24 09:24:18;;;;;;;2.90;2.60;;;23.40;53.20;;;;;;5044282;28;20033;-57
2022/07/24 09:26:47;;;;;;;4.38;2.45;;;23.40;53.30;;;;;;5043869;28;20033;-55
2022/07/24 09:29:13;;;;;;;2.70;2.45;;;23.30;53.30;;;;;;5043329;28;20056;-55
2022/07/24 09:31:57;;;;;;;2.88;2.67;;;23.40;53.30;;;;;;5044017;28;20060;-54
2022/07/24 09:34:23;;;;;;;2.60;2.30;;;23.40;53.30;;;;;;5043952;28;20420;-55
2022/07/24 09:37:00;;;;;;;3.63;2.45;;;23.40;53.30;;;;;;5047126;28;20120;-51
2022/07/24 09:39:26;;;;;;;4.05;2.83;;;23.40;53.10;;;;;;5046611;28;20115;-53
2022/07/24 09:41:52;;;;;;;3.10;2.80;;;23.40;53.20;;;;;;5029871;28;20083;-55
2022/07/24 09:44:18;;;;;;;2.85;2.63;;;23.40;53.20;;;;;;5047505;28;20067;-56
2022/07/24 09:46:47;;;;;;;2.78;2.53;;;23.40;53.20;;;;;;5046770;28;20104;-51
2022/07/24 09:49:20;;;;;;;3.83;3.08;;;23.40;53.30;;;;;;5046751;28;20025;-58
2022/07/24 09:51:49;;;;;;;4.32;3.10;;;23.40;53.30;;;;;;5047202;28;20120;-57
2022/07/24 09:54:14;;;;;;;3.78;3.10;;;23.40;53.20;;;;;;5029251;28;20115;-55
2022/07/24 09:56:40;;;;;;;4.70;3.40;;;23.40;53.20;;;;;;5029148;28;20048;-54
2022/07/24 09:59:07;;;;;;;3.92;3.55;;;23.40;53.20;;;;;;5046894;28;20025;-58
2022/07/24 10:01:32;;;;;;;3.40;3.00;;;23.40;53.20;;;;;;5030186;28;20033;-54
2022/07/24 10:04:00;;;;;;;3.85;3.55;;;23.40;53.10;;;;;;5046403;28;20025;-54
2022/07/24 10:06:26;;;;;;;4.60;3.78;;;23.40;53.10;;;;;;5046576;28;20055;-52
2022/07/24 10:08:52;;;;;;;4.35;3.75;;;23.40;53.00;;;;;;5046466;28;20495;-52
2022/07/24 10:11:17;;;;;;;4.05;3.75;;;23.40;53.00;;;;;;5046831;28;20025;-52
2022/07/24 10:13:43;;;;;;;4.45;3.33;;;23.40;52.70;;;;;;5045838;28;20041;-52
2022/07/24 10:16:14;;;;;;;3.38;3.08;;;23.50;52.90;;;;;;5047079;28;20537;-54
2022/07/24 10:18:47;;;;;;;4.68;3.75;;;23.50;52.90;;;;;;5046620;28;20041;-55
2022/07/24 10:21:16;;;;;;;3.78;3.47;;;23.50;52.90;;;;;;5046455;28;20185;-53
2022/07/24 10:24:03;;;;;;;4.40;3.33;;;23.50;52.90;;;;;;5046914;28;20086;-53
2022/07/24 10:26:41;;;;;;;3.55;3.25;;;23.40;52.90;;;;;;5045814;28;20199;-50
2022/07/24 10:29:11;;;;;;;4.28;3.58;;;23.40;52.80;;;;;;5044784;28;20429;-51
2022/07/24 10:31:38;;;;;;;3.80;3.50;;;23.40;52.60;;;;;;5046525;28;20132;-51
2022/07/24 10:34:10;;;;;;;3.85;3.38;;;23.40;52.90;;;;;;5046756;28;20130;-49
2022/07/24 10:36:39;;;;;;;3.60;3.30;;;23.50;52.80;;;;;;5045248;28;20086;-49
2022/07/24 10:39:19;;;;;;;3.72;3.42;;;23.50;51.20;;;;;;5028141;28;20025;-49
2022/07/24 10:41:45;;;;;;;4.15;3.80;;;23.50;52.30;;;;;;5028344;28;20053;-53
2022/07/24 10:44:17;;;;;;;3.83;3.42;;;23.50;52.70;;;;;;5027616;28;20686;-53
2022/07/24 10:47:03;;;;;;;5.05;3.45;;;23.50;52.70;;;;;;5045636;28;20037;-49
2022/07/24 10:49:42;;;;;;;4.00;3.60;;;23.50;52.60;;;;;;5045930;28;20116;-53
2022/07/24 10:52:21;;;;;;;4.15;3.72;;;23.50;52.70;;;;;;5045802;28;20025;-50
2022/07/24 10:54:47;;;;;;;6.28;3.90;;;23.50;52.30;;;;;;5046651;28;20040;-51
2022/07/24 10:57:12;;;;;;;3.70;3.40;;;23.50;52.50;;;;;;5028403;28;20029;-48
2022/07/24 10:59:41;;;;;;;3.90;3.50;;;23.50;52.50;;;;;;5045821;28;20025;-47
2022/07/24 11:02:29;;;;;;;3.65;3.35;;;23.50;52.50;;;;;;5046207;28;20626;-48
2022/07/24 11:05:30;;;;;;;4.03;3.63;;;23.50;52.30;;;;;;5046159;28;20056;-49
2022/07/24 11:08:14;;;;;;;5.50;3.47;;;23.50;52.20;;;;;;5026020;28;20028;-52
2022/07/24 11:10:53;;;;;;;4.22;3.58;;;23.60;52.30;;;;;;5028552;28;20025;-47
2022/07/24 11:13:34;;;;;;;5.65;3.78;;;23.60;52.00;;;;;;5045826;28;20037;-54
2022/07/24 11:16:11;;;;;;;4.10;3.70;;;23.60;52.40;;;;;;5045803;28;20021;-48
2022/07/24 11:18:51;;;;;;;4.18;3.58;;;23.60;52.40;;;;;;5045806;28;20031;-48
2022/07/24 11:24:20;;;;;;;3.65;3.35;;;23.50;52.20;;;;;;5061383;28;20094;-49
2022/07/24 11:26:50;;;;;;;4.03;3.63;;;23.50;52.40;;;;;;5047405;28;20032;-50
2022/07/24 11:29:22;;;;;;;4.22;3.92;;;23.50;52.30;;;;;;5047591;28;20058;-50
2022/07/24 11:31:52;;;;;;;4.50;4.10;;;23.50;52.10;;;;;;5047896;28;20056;-49
2022/07/24 11:34:17;;;;;;;3.15;2.95;;;23.50;52.10;;;;;;5047903;28;20124;-49
2022/07/24 11:36:44;;;;;;;3.80;3.40;;;23.50;52.10;;;;;;5065036;28;20111;-49
2022/07/24 11:39:09;;;;;;;4.43;3.60;;;23.50;52.10;;;;;;5047454;28;20086;-49
2022/07/24 11:41:45;;;;;;;3.80;3.50;;;23.60;52.60;;;;;;5031325;28;20036;-49
2022/07/24 11:44:11;;;;;;;4.20;3.80;;;23.60;52.00;;;;;;5065682;28;20032;-49
2022/07/24 11:46:39;;;;;;;3.88;3.58;;;23.60;51.30;;;;;;5064900;28;20058;-48
2022/07/24 11:49:05;;;;;;;4.20;3.80;;;23.60;51.80;;;;;;5047475;28;20044;-49
2022/07/24 11:51:31;;;;;;;3.95;3.55;;;23.70;50.70;;;;;;5046651;28;20592;-51
2022/07/24 11:53:56;;;;;;;3.33;3.13;;;23.60;52.10;;;;;;5064786;28;20032;-50
2022/07/24 11:56:22;;;;;;;3.42;3.15;;;23.60;52.10;;;;;;5064612;28;20024;-50
2022/07/24 11:58:47;;;;;;;3.95;3.55;;;23.60;52.10;;;;;;5064222;28;20025;-53
2022/07/24 12:01:21;;;;;;;4.50;4.10;;;23.70;51.90;;;;;;5064220;28;20068;-49
2022/07/24 12:03:53;;;;;;;3.97;3.50;;;23.70;50.60;;;;;;5065296;28;20024;-48
2022/07/24 12:06:19;;;;;;;4.22;3.42;;;23.70;51.20;;;;;;5064720;28;20028;-49
2022/07/24 12:08:45;;;;;;;4.65;4.20;;;23.70;51.60;;;;;;5064891;28;20032;-50
2022/07/24 12:11:10;;;;;;;3.40;3.10;;;23.70;50.50;;;;;;5064781;28;20060;-49
2022/07/24 12:13:40;;;;;;;4.07;3.60;;;23.70;51.00;;;;;;5064773;28;20047;-48
2022/07/24 12:16:06;;;;;;;4.35;3.95;;;23.70;51.00;;;;;;5047688;28;20522;-50
2022/07/24 12:18:31;;;;;;;4.10;3.53;;;23.80;49.30;;;;;;5064097;28;20066;-50
2022/07/24 12:21:00;;;;;;;3.88;3.47;;;23.70;51.70;;;;;;5064271;28;20486;-49
2022/07/24 12:23:26;;;;;;;3.53;3.22;;;23.70;51.70;;;;;;5046629;28;20040;-52
2022/07/24 12:25:51;;;;;;;4.03;3.55;;;23.70;51.40;;;;;;5064488;28;20024;-49
2022/07/24 12:28:18;;;;;;;5.47;3.72;;;23.80;49.90;;;;;;5064294;28;20028;-51
2022/07/24 12:30:45;;;;;;;4.35;3.28;;;23.80;49.20;;;;;;5046027;28;20392;-48
2022/07/24 12:33:21;;;;;;;4.30;3.63;;;23.80;49.10;;;;;;5064190;28;20058;-49
2022/07/24 12:36:00;;;;;;;3.88;3.55;;;23.80;49.30;;;;;;5063006;28;20044;-49
2022/07/24 12:38:30;;;;;;;3.95;3.55;;;23.80;50.70;;;;;;5063803;28;20123;-49
2022/07/24 12:41:15;;;;;;;4.30;3.83;;;23.80;50.00;;;;;;5063721;28;20028;-49
2022/07/24 12:44:01;;;;;;;4.65;3.30;;;23.90;49.50;;;;;;5063666;28;20107;-50
2022/07/24 12:46:46;;;;;;;3.83;3.53;;;23.90;50.60;;;;;;5063871;28;20029;-49
2022/07/24 12:49:16;;;;;;;5.53;3.70;;;23.80;51.20;;;;;;5062794;28;20383;-49
2022/07/24 12:51:51;;;;;;;3.78;3.47;;;23.90;49.00;;;;;;5029293;28;20028;-48